Terminal Aerodrome Forecast
Issued by NWS

Home | Current Version | Previous Version | Graphics & Text | Print | Product List | Glossary On
Versions: 1 2 3 4 5 6 7 8 9 10 11 12 13 14 15 16 17 18 19
696
FTUS43 KIWX 171504 AAA
TAFSBN
TAF AMD
KSBN 171504Z 1715/1812 24010KT 3SM BR OVC003
      TEMPO 1715/1718 1/4SM FG VV002
     FM180000 26010KT 3SM BR VCSH OVC006
     FM181000 26006KT 4SM BR OVC010=

USA.gov is the U.S. government's official web portal to all federal, state and local government web resources and services.